createdAt,value
2022-12-15T00:01:33.165Z,45.50
2022-12-15T00:04:07.098Z,45.51
2022-12-15T00:06:40.083Z,45.54
2022-12-15T00:09:14.575Z,45.54
2022-12-15T00:11:46.171Z,45.54
2022-12-15T00:14:19.086Z,45.56
2022-12-15T00:16:52.170Z,45.64
2022-12-15T00:19:25.033Z,45.60
2022-12-15T00:21:58.179Z,45.65
2022-12-15T00:24:31.052Z,45.68
2022-12-15T00:27:04.128Z,45.69
2022-12-15T00:29:37.072Z,45.77
2022-12-15T00:32:10.162Z,45.72
2022-12-15T00:34:43.174Z,45.83
2022-12-15T00:37:16.074Z,46.19
2022-12-15T00:39:49.188Z,46.13
2022-12-15T00:42:22.159Z,46.10
2022-12-15T00:44:55.199Z,46.15
2022-12-15T00:47:28.127Z,46.09
2022-12-15T00:50:01.058Z,46.08
2022-12-15T00:52:34.124Z,46.10
2022-12-15T00:55:07.203Z,46.13
2022-12-15T00:57:40.207Z,46.13
2022-12-15T01:00:13.091Z,46.18
2022-12-15T01:02:46.442Z,46.26
2022-12-15T01:05:19.167Z,46.22
2022-12-15T01:07:52.323Z,46.28
2022-12-15T01:10:25.214Z,46.23
2022-12-15T01:12:58.202Z,46.24
2022-12-15T01:15:31.205Z,46.24
2022-12-15T01:18:04.155Z,46.22
2022-12-15T01:20:37.043Z,46.22
2022-12-15T01:23:10.229Z,46.21
2022-12-15T01:25:43.249Z,46.19
2022-12-15T01:28:16.206Z,46.19
2022-12-15T01:30:49.130Z,46.19
2022-12-15T01:33:22.221Z,46.19
2022-12-15T01:35:55.250Z,46.17
2022-12-15T01:38:28.305Z,46.21
2022-12-15T01:41:01.155Z,46.25
2022-12-15T01:43:34.708Z,46.29
2022-12-15T01:46:07.254Z,46.30
2022-12-15T01:48:40.174Z,46.39
2022-12-15T01:51:12.921Z,46.37
2022-12-15T01:53:46.366Z,46.38
2022-12-15T01:56:19.234Z,46.38
2022-12-15T01:58:52.194Z,46.48
2022-12-15T02:01:25.368Z,46.46
2022-12-15T02:03:58.287Z,46.58
2022-12-15T02:06:31.235Z,46.50
2022-12-15T02:09:04.367Z,46.46
2022-12-15T02:11:37.309Z,46.49
2022-12-15T02:14:10.221Z,46.46
2022-12-15T02:16:43.476Z,46.45
2022-12-15T02:19:16.219Z,46.47
2022-12-15T02:21:49.159Z,46.43
2022-12-15T02:24:22.336Z,46.47
2022-12-15T02:26:55.334Z,46.50
2022-12-15T02:29:28.305Z,46.45
2022-12-15T02:32:01.411Z,46.46
2022-12-15T02:34:34.304Z,46.45
2022-12-15T02:37:07.220Z,46.44
2022-12-15T02:39:40.387Z,46.45
2022-12-15T02:42:13.132Z,46.41
2022-12-15T02:44:46.365Z,46.43
2022-12-15T02:47:19.240Z,46.41
2022-12-15T02:49:52.195Z,46.39
2022-12-15T02:52:25.323Z,46.40
2022-12-15T02:54:58.418Z,46.44
2022-12-15T02:57:31.427Z,46.42
2022-12-15T03:00:04.155Z,46.52
2022-12-15T03:02:37.548Z,46.47
2022-12-15T03:05:10.271Z,46.49
2022-12-15T03:07:43.286Z,46.48
2022-12-15T03:10:16.464Z,46.49
2022-12-15T03:12:49.309Z,46.48
2022-12-15T03:15:22.417Z,46.46
2022-12-15T03:17:58.320Z,46.45
2022-12-15T03:20:31.420Z,46.42
2022-12-15T03:23:04.302Z,46.41
2022-12-15T03:25:37.458Z,46.39
2022-12-15T03:28:10.369Z,46.37
2022-12-15T03:30:43.243Z,46.37
2022-12-15T03:33:16.308Z,46.35
2022-12-15T03:35:49.426Z,46.33
2022-12-15T03:38:22.554Z,46.33
2022-12-15T03:40:56.353Z,46.33
2022-12-15T03:43:32.678Z,46.37
2022-12-15T03:46:05.452Z,46.37
2022-12-15T03:48:38.524Z,46.38
2022-12-15T03:51:12.380Z,46.34
2022-12-15T03:53:45.485Z,46.41
2022-12-15T03:56:18.405Z,46.40
2022-12-15T03:58:51.373Z,46.38
2022-12-15T04:01:24.637Z,46.41
2022-12-15T04:04:00.855Z,46.46
2022-12-15T04:06:30.495Z,46.46
2022-12-15T04:09:07.429Z,46.48
2022-12-15T04:11:40.526Z,46.47
2022-12-15T04:14:13.398Z,46.47
2022-12-15T04:16:46.561Z,46.51
2022-12-15T04:19:19.571Z,46.50
2022-12-15T04:21:53.381Z,46.50
2022-12-15T04:24:26.516Z,46.49
2022-12-15T04:26:59.473Z,46.47
2022-12-15T04:29:32.523Z,46.45
2022-12-15T04:32:05.569Z,46.46
2022-12-15T04:34:38.518Z,46.46
2022-12-15T04:37:11.412Z,46.45
2022-12-15T04:39:44.426Z,46.44
2022-12-15T04:42:17.486Z,46.45
2022-12-15T04:44:50.470Z,46.46
2022-12-15T04:47:23.564Z,46.46
2022-12-15T04:49:56.427Z,46.44
2022-12-15T04:52:29.552Z,46.43
2022-12-15T04:55:02.165Z,46.48
2022-12-15T04:57:35.308Z,46.44
2022-12-15T05:00:08.424Z,46.47
2022-12-15T05:02:41.433Z,46.48
2022-12-15T05:05:14.240Z,46.49
2022-12-15T05:07:47.234Z,46.48
2022-12-15T05:10:20.590Z,46.49
2022-12-15T05:12:53.369Z,46.49
2022-12-15T05:15:26.497Z,46.45
2022-12-15T05:17:59.251Z,46.45
2022-12-15T05:20:32.622Z,46.43
2022-12-15T05:23:05.601Z,46.42
2022-12-15T05:25:38.538Z,46.42
2022-12-15T05:28:11.552Z,46.40
2022-12-15T05:30:44.688Z,46.37
2022-12-15T05:33:17.614Z,46.37
2022-12-15T05:35:50.315Z,46.37
2022-12-15T05:38:23.628Z,46.36
2022-12-15T05:40:56.540Z,46.35
2022-12-15T05:43:30.046Z,46.35
2022-12-15T05:46:02.703Z,46.35
2022-12-15T05:48:35.616Z,46.35
2022-12-15T05:51:08.680Z,46.34
2022-12-15T05:53:41.316Z,46.37
2022-12-15T05:56:14.567Z,46.35
2022-12-15T05:58:47.640Z,46.35
2022-12-15T06:01:20.704Z,46.38
2022-12-15T06:03:53.307Z,46.37
2022-12-15T06:06:26.617Z,46.35
2022-12-15T06:08:59.653Z,46.39
2022-12-15T06:11:32.680Z,46.37
2022-12-15T06:14:05.699Z,46.38
2022-12-15T06:16:49.855Z,46.39
2022-12-15T06:19:11.483Z,46.37
2022-12-15T06:21:44.662Z,46.36
2022-12-15T06:24:17.585Z,46.37
2022-12-15T06:26:50.746Z,46.36
2022-12-15T06:29:23.687Z,46.37
2022-12-15T06:31:56.787Z,46.37
2022-12-15T06:34:29.621Z,46.37
2022-12-15T06:37:02.678Z,46.40
2022-12-15T06:39:35.737Z,46.40
2022-12-15T06:42:08.817Z,46.42
2022-12-15T06:44:42.860Z,46.42
2022-12-15T06:47:15.680Z,46.44
2022-12-15T06:49:48.642Z,46.43
2022-12-15T06:52:21.442Z,46.43
2022-12-15T06:54:54.781Z,46.45
2022-12-15T06:57:27.726Z,46.46
2022-12-15T07:00:00.896Z,46.43
2022-12-15T07:02:34.911Z,46.44
2022-12-15T07:05:07.720Z,46.45
2022-12-15T07:07:40.484Z,46.45
2022-12-15T07:10:13.579Z,46.46
2022-12-15T07:12:46.772Z,46.44
2022-12-15T07:15:19.706Z,46.42
2022-12-15T07:17:52.797Z,46.45
2022-12-15T07:20:28.897Z,46.45
2022-12-15T07:22:58.814Z,46.45
2022-12-15T07:25:31.800Z,46.46
2022-12-15T07:28:04.727Z,46.45
2022-12-15T07:30:39.122Z,46.46
2022-12-15T07:33:10.688Z,46.45
2022-12-15T07:35:43.764Z,46.46
2022-12-15T07:38:16.718Z,46.44
2022-12-15T07:40:49.722Z,46.47
2022-12-15T07:43:22.929Z,46.52
2022-12-15T07:45:56.928Z,46.53
2022-12-15T07:48:37.622Z,46.56
2022-12-15T07:51:18.701Z,46.56
2022-12-15T07:53:43.661Z,46.54
2022-12-15T07:56:16.901Z,46.54
2022-12-15T07:58:49.890Z,46.55
2022-12-15T08:01:22.989Z,46.62
2022-12-15T08:03:55.955Z,46.55
2022-12-15T08:06:28.540Z,46.49
2022-12-15T08:09:02.272Z,46.45
2022-12-15T08:11:35.908Z,46.40
2022-12-15T08:14:13.526Z,46.28
2022-12-15T08:16:43.059Z,46.29
2022-12-15T08:19:15.738Z,46.32
2022-12-15T08:21:48.830Z,46.33
2022-12-15T08:24:21.771Z,46.37
2022-12-15T08:26:54.887Z,46.37
2022-12-15T08:32:01.058Z,46.35
2022-12-15T08:34:33.887Z,46.29
2022-12-15T08:37:06.887Z,46.27
2022-12-15T08:39:39.822Z,46.24
2022-12-15T08:42:12.799Z,46.16
2022-12-15T08:44:45.981Z,46.26
2022-12-15T08:47:18.857Z,46.24
2022-12-15T08:49:51.777Z,46.14
2022-12-15T08:52:24.573Z,46.16
2022-12-15T08:54:57.827Z,46.10
2022-12-15T08:57:30.924Z,46.06
2022-12-15T09:00:03.708Z,45.99
2022-12-15T09:02:36.939Z,46.03
2022-12-15T09:05:09.955Z,46.04
2022-12-15T09:07:42.910Z,46.00
2022-12-15T09:10:15.851Z,45.86
2022-12-15T09:12:48.996Z,45.88
2022-12-15T09:15:39.221Z,45.87
2022-12-15T09:17:54.993Z,45.87
2022-12-15T09:20:27.875Z,45.89
2022-12-15T09:23:00.968Z,45.86
2022-12-15T09:25:33.973Z,45.86
2022-12-15T09:28:06.978Z,45.79
2022-12-15T09:30:39.705Z,45.85
2022-12-15T09:33:13.035Z,45.80
2022-12-15T09:35:46.857Z,45.76
2022-12-15T09:38:19.924Z,45.85
2022-12-15T09:40:52.969Z,45.79
2022-12-15T09:43:34.649Z,45.73
2022-12-15T09:45:59.034Z,45.76
2022-12-15T09:48:32.045Z,45.70
2022-12-15T09:51:05.028Z,45.71
2022-12-15T09:53:55.068Z,45.76
2022-12-15T09:56:11.024Z,45.75
2022-12-15T09:58:43.935Z,45.71
2022-12-15T10:01:16.950Z,45.70
2022-12-15T10:03:50.148Z,45.57
2022-12-15T10:06:27.094Z,45.66
2022-12-15T10:08:56.004Z,45.61
2022-12-15T10:11:29.080Z,45.54
2022-12-15T10:14:02.066Z,45.67
2022-12-15T10:16:34.995Z,45.58
2022-12-15T10:19:07.979Z,45.57
2022-12-15T10:21:40.895Z,45.54
2022-12-15T10:24:13.969Z,45.47
2022-12-15T10:26:47.112Z,45.46
2022-12-15T10:29:20.056Z,36.16
2022-12-15T10:31:53.038Z,39.09
2022-12-15T10:34:26.184Z,42.61
2022-12-15T10:36:58.792Z,42.96
2022-12-15T10:39:32.028Z,43.13
2022-12-15T10:42:05.171Z,43.29
2022-12-15T10:44:39.069Z,43.39
2022-12-15T10:47:12.018Z,43.53
2022-12-15T10:49:45.066Z,43.65
2022-12-15T10:52:18.021Z,43.65
2022-12-15T10:54:51.064Z,43.73
2022-12-15T10:57:24.089Z,43.76
2022-12-15T10:59:57.066Z,43.92
2022-12-15T11:02:30.300Z,43.99
2022-12-15T11:05:03.146Z,44.07
2022-12-15T11:07:36.153Z,44.08
2022-12-15T11:10:09.087Z,43.99
2022-12-15T11:12:42.097Z,43.98
2022-12-15T11:15:15.046Z,44.00
2022-12-15T11:17:48.177Z,44.13
2022-12-15T11:20:21.124Z,44.21
2022-12-15T11:22:54.156Z,44.21
2022-12-15T11:25:27.086Z,44.24
2022-12-15T11:28:00.191Z,44.26
2022-12-15T11:30:33.211Z,44.22
2022-12-15T11:33:06.069Z,44.30
2022-12-15T11:35:39.226Z,44.31
2022-12-15T11:38:12.198Z,44.28
2022-12-15T11:40:44.956Z,44.30
2022-12-15T11:43:18.220Z,44.34
2022-12-15T11:45:51.126Z,44.34
2022-12-15T11:48:24.154Z,44.44
2022-12-15T11:50:57.361Z,44.51
2022-12-15T11:53:30.612Z,44.49
2022-12-15T11:56:03.244Z,44.51
2022-12-15T11:58:36.472Z,44.38
2022-12-15T12:01:09.192Z,44.45
2022-12-15T12:03:42.260Z,44.48
2022-12-15T12:06:15.206Z,44.46
2022-12-15T12:08:51.156Z,44.40
2022-12-15T12:11:21.291Z,44.42
2022-12-15T12:13:54.177Z,44.52
2022-12-15T12:16:27.248Z,44.55
2022-12-15T12:19:00.332Z,44.57
2022-12-15T12:21:33.361Z,44.51
2022-12-15T12:24:07.237Z,44.52
2022-12-15T12:26:40.182Z,44.46
2022-12-15T12:29:13.112Z,44.43
2022-12-15T12:31:46.245Z,44.47
2022-12-15T12:34:19.178Z,44.51
2022-12-15T12:36:52.360Z,44.58
2022-12-15T12:39:26.263Z,44.61
2022-12-15T12:41:59.190Z,44.62
2022-12-15T12:44:32.384Z,44.57
2022-12-15T12:47:06.257Z,44.44
2022-12-15T12:49:39.349Z,44.47
2022-12-15T12:52:12.157Z,44.44
2022-12-15T12:54:45.330Z,44.38
2022-12-15T12:57:18.316Z,44.38
2022-12-15T12:59:51.222Z,44.37
2022-12-15T13:02:24.447Z,44.34
2022-12-15T13:04:57.402Z,44.35
2022-12-15T13:07:31.154Z,44.42
2022-12-15T13:10:04.278Z,44.48
2022-12-15T13:12:53.729Z,44.41
2022-12-15T13:15:10.238Z,44.43
2022-12-15T13:17:43.317Z,44.43
2022-12-15T13:20:16.248Z,44.37
2022-12-15T13:22:49.383Z,44.46
2022-12-15T13:25:22.306Z,44.48
2022-12-15T13:27:55.344Z,44.50
2022-12-15T13:30:28.406Z,44.44
2022-12-15T13:33:01.277Z,44.55
2022-12-15T13:35:34.371Z,44.40
2022-12-15T13:38:07.285Z,44.53
2022-12-15T13:40:40.096Z,44.51
2022-12-15T13:43:13.373Z,44.49
2022-12-15T13:48:19.107Z,44.46
2022-12-15T13:50:53.145Z,44.47
2022-12-15T13:53:26.448Z,44.52
2022-12-15T13:55:59.381Z,44.45
2022-12-15T13:58:32.326Z,44.32
2022-12-15T14:01:05.411Z,44.14
2022-12-15T14:03:38.957Z,43.95
2022-12-15T14:06:11.301Z,43.97
2022-12-15T14:08:44.408Z,43.95
2022-12-15T14:11:50.784Z,43.81
2022-12-15T14:13:54.105Z,43.79
2022-12-15T14:16:24.097Z,43.73
2022-12-15T14:18:57.496Z,43.63
2022-12-15T14:21:30.359Z,43.67
2022-12-15T14:24:36.989Z,43.67
2022-12-15T14:26:37.365Z,43.58
2022-12-15T14:29:10.381Z,43.74
2022-12-15T14:31:43.406Z,43.87
2022-12-15T14:34:16.340Z,43.84
2022-12-15T14:36:49.454Z,43.95
2022-12-15T14:39:22.493Z,44.07
2022-12-15T14:41:55.408Z,44.10
2022-12-15T14:47:01.508Z,44.18
2022-12-15T14:49:34.374Z,44.30
2022-12-15T14:52:07.435Z,44.29
2022-12-15T14:54:40.425Z,44.30
2022-12-15T14:57:13.489Z,44.33
2022-12-15T14:59:46.394Z,44.34
2022-12-15T15:02:19.647Z,44.34
2022-12-15T15:03:07.606Z,44.46
2022-12-15T15:03:15.317Z,44.17
2022-12-15T15:04:52.448Z,44.35
2022-12-15T15:07:25.411Z,44.32
2022-12-15T15:09:58.581Z,44.34
2022-12-15T15:12:31.432Z,44.33
2022-12-15T15:15:04.355Z,44.34
2022-12-15T15:17:37.514Z,44.31
2022-12-15T15:20:10.561Z,44.35
2022-12-15T15:22:43.472Z,44.36
2022-12-15T15:25:16.567Z,44.46
2022-12-15T15:27:49.540Z,44.40
2022-12-15T15:30:22.517Z,44.33
2022-12-15T15:32:55.314Z,44.38
2022-12-15T15:35:28.546Z,44.36
2022-12-15T15:38:01.515Z,44.35
2022-12-15T15:40:34.228Z,44.29
2022-12-15T15:43:07.219Z,44.34
2022-12-15T15:45:40.638Z,44.32
2022-12-15T15:48:13.447Z,44.37
2022-12-15T15:50:46.187Z,44.32
2022-12-15T15:53:21.551Z,44.40
2022-12-15T15:55:54.258Z,44.43
2022-12-15T15:58:27.603Z,44.39
2022-12-15T16:01:00.546Z,44.53
2022-12-15T16:03:33.719Z,44.47
2022-12-15T16:06:06.536Z,44.46
2022-12-15T16:08:39.591Z,44.46
2022-12-15T16:11:12.876Z,44.36
2022-12-15T16:13:46.317Z,44.37
2022-12-15T16:16:19.361Z,44.31
2022-12-15T16:18:52.327Z,44.25
2022-12-15T16:21:25.445Z,44.23
2022-12-15T16:23:58.278Z,44.13
2022-12-15T16:26:31.339Z,44.11
2022-12-15T16:29:04.573Z,44.13
2022-12-15T16:31:41.667Z,44.14
2022-12-15T16:34:10.350Z,44.13
2022-12-15T16:36:43.519Z,44.12
2022-12-15T16:39:16.314Z,44.23
2022-12-15T16:41:49.582Z,44.23
2022-12-15T16:44:22.448Z,44.22
2022-12-15T16:46:55.625Z,44.21
2022-12-15T16:49:28.454Z,44.22
2022-12-15T16:52:01.488Z,44.29
2022-12-15T16:54:34.408Z,44.36
2022-12-15T16:57:07.378Z,44.32
2022-12-15T16:59:40.671Z,44.30
2022-12-15T17:02:13.729Z,44.25
2022-12-15T17:04:46.707Z,44.28
2022-12-15T17:07:20.763Z,44.23
2022-12-15T17:09:52.554Z,44.33
2022-12-15T17:12:25.368Z,44.25
2022-12-15T17:14:58.626Z,44.30
2022-12-15T17:17:31.673Z,44.35
2022-12-15T17:20:28.632Z,44.30
2022-12-15T17:22:37.474Z,44.31
2022-12-15T17:25:13.676Z,44.34
2022-12-15T17:27:46.525Z,44.33
2022-12-15T17:30:19.663Z,44.38
2022-12-15T17:32:52.518Z,44.37
2022-12-15T17:35:25.660Z,44.36
2022-12-15T17:37:58.699Z,44.41
2022-12-15T17:40:31.772Z,44.28
2022-12-15T17:43:04.596Z,44.31
2022-12-15T17:45:37.765Z,44.29
2022-12-15T17:48:10.656Z,44.30
2022-12-15T17:50:43.406Z,44.28
2022-12-15T17:53:16.752Z,44.18
2022-12-15T17:55:49.729Z,44.21
2022-12-15T17:58:22.519Z,44.13
2022-12-15T18:00:55.483Z,44.15
2022-12-15T18:03:28.934Z,44.12
2022-12-15T18:06:01.417Z,44.15
2022-12-15T18:08:34.568Z,44.24
2022-12-15T18:11:07.790Z,44.27
2022-12-15T18:13:41.274Z,44.26
2022-12-15T18:16:13.759Z,44.21
2022-12-15T18:18:46.814Z,44.18
2022-12-15T18:21:22.516Z,44.16
2022-12-15T18:23:55.836Z,44.18
2022-12-15T18:26:28.809Z,44.21
2022-12-15T18:29:01.877Z,44.12
2022-12-15T18:31:34.850Z,44.12
2022-12-15T18:34:07.885Z,43.97
2022-12-15T18:36:40.782Z,43.95
2022-12-15T18:39:13.547Z,43.94
2022-12-15T18:41:46.772Z,43.79
2022-12-15T18:44:19.587Z,43.92
2022-12-15T18:46:52.958Z,43.79
2022-12-15T18:49:25.883Z,44.01
2022-12-15T18:51:58.513Z,44.12
2022-12-15T18:54:31.826Z,44.19
2022-12-15T18:57:04.479Z,44.18
2022-12-15T18:59:37.982Z,44.28
2022-12-15T19:02:10.631Z,44.34
2022-12-15T19:04:43.509Z,44.39
2022-12-15T19:07:16.601Z,44.43
2022-12-15T19:09:49.601Z,44.46
2022-12-15T19:12:22.656Z,44.50
2022-12-15T19:14:55.663Z,44.49
2022-12-15T19:17:28.657Z,44.47
2022-12-15T19:20:01.890Z,44.45
2022-12-15T19:22:34.710Z,44.48
2022-12-15T19:25:07.531Z,44.57
2022-12-15T19:27:40.596Z,44.56
2022-12-15T19:30:13.575Z,44.57
2022-12-15T19:32:46.727Z,44.54
2022-12-15T19:35:19.742Z,44.58
2022-12-15T19:37:52.742Z,44.55
2022-12-15T19:40:25.629Z,44.56
2022-12-15T19:42:58.650Z,44.50
2022-12-15T19:45:32.966Z,44.57
2022-12-15T19:48:08.761Z,44.08
2022-12-15T19:50:47.718Z,44.30
2022-12-15T19:53:20.838Z,44.27
2022-12-15T19:55:53.835Z,44.34
2022-12-15T19:58:28.071Z,44.35
2022-12-15T20:01:00.053Z,44.33
2022-12-15T20:03:33.370Z,44.34
2022-12-15T20:06:05.992Z,44.34
2022-12-15T20:08:38.921Z,44.21
2022-12-15T20:11:11.916Z,44.29
2022-12-15T20:13:44.902Z,44.29
2022-12-15T20:16:17.924Z,44.32
2022-12-15T20:18:50.920Z,44.39
2022-12-15T20:21:24.012Z,44.38
2022-12-15T20:23:57.028Z,44.40
2022-12-15T20:26:29.908Z,44.39
2022-12-15T20:29:02.702Z,44.41
2022-12-15T20:31:36.189Z,44.44
2022-12-15T20:34:08.689Z,44.42
2022-12-15T20:36:41.816Z,44.54
2022-12-15T20:39:14.724Z,44.50
2022-12-15T20:41:47.654Z,44.52
2022-12-15T20:44:20.827Z,44.53
2022-12-15T20:46:54.091Z,44.55
2022-12-15T20:49:26.949Z,44.55
2022-12-15T20:51:59.874Z,44.56
2022-12-15T20:54:32.759Z,44.61
2022-12-15T20:57:05.686Z,44.63
2022-12-15T20:59:38.849Z,44.56
2022-12-15T21:02:11.892Z,44.61
2022-12-15T21:04:44.876Z,44.56
2022-12-15T21:07:18.069Z,44.59
2022-12-15T21:09:51.013Z,44.56
2022-12-15T21:12:23.882Z,44.55
2022-12-15T21:14:57.058Z,44.56
2022-12-15T21:17:30.091Z,44.54
2022-12-15T21:20:03.139Z,44.58
2022-12-15T21:22:36.170Z,44.56
2022-12-15T21:25:10.040Z,44.55
2022-12-15T21:27:42.976Z,44.56
2022-12-15T21:30:16.018Z,44.56
2022-12-15T21:32:48.908Z,44.58
2022-12-15T21:35:22.833Z,44.55
2022-12-15T21:37:55.046Z,44.56
2022-12-15T21:40:27.921Z,44.58
2022-12-15T21:43:00.975Z,44.55
2022-12-15T21:45:34.090Z,44.57
2022-12-15T21:48:06.832Z,43.76
2022-12-15T21:50:40.149Z,43.28
2022-12-15T21:53:12.916Z,43.16
2022-12-15T21:55:45.792Z,43.54
2022-12-15T21:58:19.137Z,43.78
2022-12-15T22:00:52.170Z,43.90
2022-12-15T22:03:25.386Z,43.93
2022-12-15T22:05:58.995Z,43.86
2022-12-15T22:08:32.376Z,43.99
2022-12-15T22:11:05.130Z,44.03
2022-12-15T22:13:38.091Z,44.00
2022-12-15T22:16:11.161Z,44.07
2022-12-15T22:18:44.069Z,44.04
2022-12-15T22:21:16.797Z,44.10
2022-12-15T22:23:50.119Z,44.06
2022-12-15T22:26:23.243Z,44.05
2022-12-15T22:28:56.081Z,44.16
2022-12-15T22:31:29.320Z,44.15
2022-12-15T22:34:02.174Z,44.17
2022-12-15T22:36:35.197Z,44.28
2022-12-15T22:39:08.414Z,44.30
2022-12-15T22:41:41.153Z,44.27
2022-12-15T22:44:14.090Z,44.29
2022-12-15T22:46:47.269Z,44.26
2022-12-15T22:49:20.194Z,44.29
2022-12-15T22:51:53.259Z,44.25
2022-12-15T22:54:26.159Z,44.32
2022-12-15T22:56:59.230Z,44.21
2022-12-15T22:59:32.321Z,44.29
2022-12-15T23:02:06.365Z,44.23
2022-12-15T23:04:39.256Z,44.28
2022-12-15T23:07:12.273Z,44.32
2022-12-15T23:09:45.209Z,44.35
2022-12-15T23:12:18.240Z,44.36
2022-12-15T23:14:51.308Z,44.19
2022-12-15T23:17:24.281Z,44.45
2022-12-15T23:19:57.032Z,44.45
2022-12-15T23:22:30.359Z,44.51
2022-12-15T23:25:04.267Z,44.36
2022-12-15T23:27:37.252Z,44.46
2022-12-15T23:30:10.233Z,44.52
2022-12-15T23:32:43.168Z,44.54
2022-12-15T23:35:16.440Z,44.55
2022-12-15T23:37:50.281Z,44.63
2022-12-15T23:40:23.323Z,44.62
2022-12-15T23:42:56.274Z,44.64
2022-12-15T23:45:29.309Z,44.62
2022-12-15T23:48:02.307Z,44.63
2022-12-15T23:50:34.954Z,44.67
2022-12-15T23:53:08.343Z,44.70
2022-12-15T23:55:41.314Z,44.79
2022-12-15T23:58:14.347Z,44.81
